Time;durP1;ratioP1;P1;durP2;ratioP2;P2;SDS_P1;SDS_P2;PMS_P1;PMS_P2;Temp;Humidity;BMP_temperature;BMP_pressure;BME280_temperature;BME280_humidity;BME280_pressure;Samples;Min_cycle;Max_cycle;Signal;HPM_P1;HPM_P2
2023/05/15 00:02:13;;;;;;;57.42;49.80;;;10.50;88.30;;;;;;5000897;28;20041;-74
2023/05/15 00:04:38;;;;;;;56.35;47.33;;;10.50;88.20;;;;;;5000231;28;20080;-74
2023/05/15 00:07:04;;;;;;;60.20;50.00;;;10.50;88.20;;;;;;5001100;28;20526;-74
2023/05/15 00:09:30;;;;;;;56.65;50.40;;;10.50;88.30;;;;;;5005265;28;20030;-73
2023/05/15 00:11:56;;;;;;;55.75;49.55;;;10.50;88.30;;;;;;5002015;28;20073;-73
2023/05/15 00:14:23;;;;;;;57.13;50.10;;;10.50;88.40;;;;;;4998672;28;20669;-73
2023/05/15 00:16:49;;;;;;;58.45;49.35;;;10.40;88.50;;;;;;4981935;28;20496;-73
2023/05/15 00:19:15;;;;;;;57.22;50.03;;;10.40;88.60;;;;;;5001052;28;20026;-73
2023/05/15 00:21:41;;;;;;;54.85;47.67;;;10.40;88.70;;;;;;4982804;28;20048;-74
2023/05/15 00:24:06;;;;;;;56.30;48.05;;;10.40;88.80;;;;;;5000958;28;20529;-73
2023/05/15 00:26:32;;;;;;;56.03;47.75;;;10.40;89.00;;;;;;5003424;28;20045;-73
2023/05/15 00:28:58;;;;;;;53.92;47.95;;;10.40;88.80;;;;;;5000277;28;20081;-74
2023/05/15 00:31:23;;;;;;;54.95;47.95;;;10.30;88.70;;;;;;5000691;28;20156;-73
2023/05/15 00:33:49;;;;;;;53.35;47.17;;;10.30;88.50;;;;;;5001835;28;20066;-73
2023/05/15 00:36:16;;;;;;;54.00;48.08;;;10.30;88.40;;;;;;5001450;28;20042;-74
2023/05/15 00:38:42;;;;;;;54.92;47.35;;;10.20;88.40;;;;;;5001001;28;20034;-73
2023/05/15 00:41:10;;;;;;;55.75;48.65;;;10.20;88.40;;;;;;5001037;28;20057;-73
2023/05/15 00:43:38;;;;;;;58.22;49.58;;;10.20;88.40;;;;;;5004672;28;20341;-73
2023/05/15 00:46:06;;;;;;;59.03;48.97;;;10.20;88.60;;;;;;5001570;28;20045;-73
2023/05/15 00:48:32;;;;;;;69.45;55.55;;;10.20;88.60;;;;;;4999329;28;20040;-73
2023/05/15 00:50:59;;;;;;;77.00;52.90;;;10.20;89.10;;;;;;4996635;28;20018;-73
2023/05/15 00:53:26;;;;;;;69.35;53.40;;;10.20;89.60;;;;;;5002327;28;20197;-74
2023/05/15 00:55:56;;;;;;;74.18;56.97;;;10.30;89.70;;;;;;5000738;28;20503;-73
2023/05/15 00:58:25;;;;;;;71.75;54.22;;;10.30;89.80;;;;;;5001254;28;20108;-74
2023/05/15 01:00:51;;;;;;;74.25;56.47;;;10.30;89.70;;;;;;5000173;28;20050;-73
2023/05/15 01:03:17;;;;;;;79.00;57.30;;;10.30;89.90;;;;;;5000323;28;20496;-74
2023/05/15 01:05:43;;;;;;;76.32;56.97;;;10.30;89.80;;;;;;4999978;28;20037;-74
2023/05/15 01:08:36;;;;;;;76.78;55.35;;;10.20;89.90;;;;;;5002255;28;20086;-75
2023/05/15 01:11:04;;;;;;;82.43;57.35;;;10.30;89.90;;;;;;4999779;28;20121;-73
2023/05/15 01:13:30;;;;;;;75.53;54.92;;;10.30;89.90;;;;;;4998814;28;20033;-75
2023/05/15 01:15:56;;;;;;;79.20;56.83;;;10.40;90.00;;;;;;5000323;28;20022;-74
2023/05/15 01:18:22;;;;;;;80.38;55.50;;;10.30;89.70;;;;;;5001234;28;20113;-74
2023/05/15 01:21:21;;;;;;;89.25;55.55;;;10.20;90.00;;;;;;4998879;28;20168;-73
2023/05/15 01:24:08;;;;;;;84.75;55.83;;;10.20;90.10;;;;;;4997632;28;20029;-74
2023/05/15 01:27:00;;;;;;;77.00;54.05;;;10.20;90.20;;;;;;5000335;28;20654;-74
2023/05/15 01:29:47;;;;;;;90.82;59.40;;;10.20;90.10;;;;;;4999518;28;20026;-74
2023/05/15 01:32:45;;;;;;;104.47;61.92;;;10.20;90.30;;;;;;4998719;28;20063;-75
2023/05/15 01:35:22;;;;;;;110.28;63.53;;;10.10;90.70;;;;;;4964080;28;20046;-73
2023/05/15 01:37:58;;;;;;;136.48;67.05;;;10.10;90.90;;;;;;4999346;28;20053;-74
2023/05/15 01:40:26;;;;;;;116.45;65.15;;;10.10;91.00;;;;;;5000406;28;20447;-74
2023/05/15 01:43:00;;;;;;;123.22;67.28;;;10.10;91.00;;;;;;5000680;28;20026;-73
2023/05/15 01:45:27;;;;;;;110.03;65.03;;;10.20;91.10;;;;;;5000507;28;20037;-74
2023/05/15 01:47:54;;;;;;;121.32;63.55;;;10.20;91.20;;;;;;4996549;28;20030;-73
2023/05/15 01:50:20;;;;;;;129.05;58.70;;;10.20;91.20;;;;;;4999902;28;20022;-74
2023/05/15 01:52:55;;;;;;;124.97;60.20;;;10.20;91.20;;;;;;4999609;28;20052;-72
2023/05/15 01:55:22;;;;;;;121.07;57.40;;;10.20;91.40;;;;;;4999571;28;20026;-72
2023/05/15 01:57:50;;;;;;;122.32;60.08;;;10.30;91.50;;;;;;5000143;28;20057;-73
2023/05/15 02:00:16;;;;;;;120.07;57.08;;;10.40;91.50;;;;;;5000547;28;20121;-73
2023/05/15 02:02:43;;;;;;;127.97;56.97;;;10.50;91.50;;;;;;5000005;28;20054;-73
2023/05/15 02:05:10;;;;;;;121.53;55.60;;;10.50;91.40;;;;;;5000882;28;20484;-73
2023/05/15 02:07:36;;;;;;;121.97;58.60;;;10.50;91.30;;;;;;4998970;28;20044;-73
2023/05/15 02:10:02;;;;;;;112.05;55.83;;;10.50;91.40;;;;;;4996341;28;20505;-74
2023/05/15 02:12:29;;;;;;;122.13;55.28;;;10.50;91.40;;;;;;4999342;28;20050;-73
2023/05/15 02:14:56;;;;;;;111.00;54.22;;;10.50;91.30;;;;;;5004906;28;20022;-73
2023/05/15 02:17:22;;;;;;;109.55;53.45;;;10.50;91.40;;;;;;5006042;28;20042;-73
2023/05/15 02:19:49;;;;;;;124.00;56.38;;;10.50;91.50;;;;;;5004381;28;20036;-73
2023/05/15 02:22:14;;;;;;;120.95;56.00;;;10.60;91.60;;;;;;5004008;28;20042;-73
2023/05/15 02:24:40;;;;;;;107.57;53.20;;;10.60;91.50;;;;;;5000628;28;20092;-73
2023/05/15 02:27:32;;;;;;;113.65;56.38;;;10.70;91.50;;;;;;4989817;28;20123;-73
2023/05/15 02:30:24;;;;;;;102.07;53.30;;;10.70;91.50;;;;;;4986528;28;20424;-73
2023/05/15 02:33:19;;;;;;;100.32;50.95;;;10.60;91.20;;;;;;5002320;28;20082;-73
2023/05/15 02:35:58;;;;;;;108.70;52.63;;;10.60;91.00;;;;;;4991830;28;20038;-73
2023/05/15 02:38:59;;;;;;;103.20;54.60;;;10.60;91.10;;;;;;5003214;28;20036;-73
2023/05/15 02:41:26;;;;;;;96.20;51.25;;;10.70;91.30;;;;;;4998016;28;20046;-73
2023/05/15 02:43:54;;;;;;;91.72;50.72;;;10.60;91.10;;;;;;5001688;28;20928;-73
2023/05/15 02:46:20;;;;;;;92.95;51.33;;;10.50;91.10;;;;;;5002451;28;20374;-73
2023/05/15 02:48:47;;;;;;;103.90;53.47;;;10.50;91.30;;;;;;4999800;28;20023;-73
2023/05/15 02:51:12;;;;;;;95.63;49.70;;;10.50;91.50;;;;;;5000140;28;20104;-72
2023/05/15 02:53:42;;;;;;;90.40;50.10;;;10.60;91.60;;;;;;5001637;28;20018;-73
2023/05/15 02:56:08;;;;;;;90.00;50.97;;;10.60;91.60;;;;;;5003760;28;20065;-73
2023/05/15 02:58:34;;;;;;;95.85;50.75;;;10.60;91.60;;;;;;5002851;28;20416;-72
2023/05/15 03:01:00;;;;;;;98.55;49.60;;;10.70;91.60;;;;;;4985172;28;20518;-73
2023/05/15 03:03:27;;;;;;;97.32;50.38;;;10.70;91.60;;;;;;4997312;28;20673;-73
2023/05/15 03:05:52;;;;;;;99.40;52.05;;;10.70;91.30;;;;;;4983526;28;20032;-73
2023/05/15 03:08:18;;;;;;;96.60;49.33;;;10.60;91.40;;;;;;5000188;28;20493;-73
2023/05/15 03:10:44;;;;;;;95.68;50.03;;;10.70;91.50;;;;;;5003277;28;20135;-73
2023/05/15 03:13:09;;;;;;;100.53;52.42;;;10.70;91.60;;;;;;5001836;28;20537;-73
2023/05/15 03:15:35;;;;;;;112.50;54.03;;;10.70;91.50;;;;;;5002593;28;20668;-73
2023/05/15 03:18:01;;;;;;;98.00;50.03;;;10.70;91.50;;;;;;5003211;28;20049;-72
2023/05/15 03:20:27;;;;;;;107.07;53.92;;;10.70;91.20;;;;;;5002560;28;20029;-73
2023/05/15 03:22:52;;;;;;;102.63;51.30;;;10.70;91.20;;;;;;5001055;28;20397;-73
2023/05/15 03:25:18;;;;;;;107.57;53.70;;;10.70;91.30;;;;;;4985833;28;20477;-73
2023/05/15 03:27:44;;;;;;;112.00;54.53;;;10.70;91.40;;;;;;5001535;28;20569;-73
2023/05/15 03:30:10;;;;;;;112.60;55.28;;;10.80;91.50;;;;;;5001589;28;20033;-72
2023/05/15 03:32:35;;;;;;;118.10;53.78;;;10.90;91.50;;;;;;5003099;28;20429;-72
2023/05/15 03:35:01;;;;;;;114.40;52.58;;;10.90;91.50;;;;;;5001257;28;20061;-73
2023/05/15 03:37:27;;;;;;;130.18;56.65;;;10.90;91.40;;;;;;5002205;28;20044;-73
2023/05/15 03:39:53;;;;;;;119.47;54.83;;;10.90;91.50;;;;;;5000719;28;20033;-74
2023/05/15 03:42:22;;;;;;;128.45;56.53;;;11.00;91.50;;;;;;5001710;28;20124;-73
2023/05/15 03:44:48;;;;;;;127.47;53.72;;;10.90;91.40;;;;;;5000845;28;20030;-74
2023/05/15 03:47:14;;;;;;;128.75;54.60;;;10.80;91.20;;;;;;5000058;28;20065;-74
2023/05/15 03:49:40;;;;;;;127.18;55.63;;;10.80;91.50;;;;;;5001755;28;20109;-73
2023/05/15 03:52:06;;;;;;;133.02;54.63;;;10.80;91.40;;;;;;4999780;28;20052;-73
2023/05/15 03:54:32;;;;;;;130.32;52.33;;;10.90;91.50;;;;;;4984754;28;20132;-73
2023/05/15 03:56:58;;;;;;;140.18;56.92;;;10.90;91.60;;;;;;4997795;28;20479;-73
2023/05/15 03:59:24;;;;;;;149.00;58.42;;;10.90;91.70;;;;;;5001588;28;20482;-74
2023/05/15 04:01:49;;;;;;;144.68;56.25;;;11.00;91.60;;;;;;5001637;28;20422;-73
2023/05/15 04:04:15;;;;;;;138.82;56.97;;;11.00;91.60;;;;;;5000287;28;20058;-73
2023/05/15 04:06:41;;;;;;;130.60;55.30;;;11.00;91.60;;;;;;4998545;28;20143;-73
2023/05/15 04:09:06;;;;;;;129.70;58.97;;;11.00;91.60;;;;;;4984504;28;20025;-73
2023/05/15 04:11:33;;;;;;;132.13;58.40;;;11.00;91.40;;;;;;4999358;28;20369;-73
2023/05/15 04:13:59;;;;;;;130.40;57.88;;;11.00;91.40;;;;;;5003097;28;20462;-73
2023/05/15 04:16:25;;;;;;;116.00;52.95;;;11.00;91.20;;;;;;5001814;28;20033;-73
2023/05/15 04:18:50;;;;;;;108.05;52.88;;;10.90;91.30;;;;;;4999003;28;20116;-73
2023/05/15 04:21:16;;;;;;;129.23;58.58;;;10.80;91.20;;;;;;4982035;28;20037;-74
2023/05/15 04:23:42;;;;;;;121.28;56.88;;;10.80;91.40;;;;;;5000830;28;20489;-73
2023/05/15 04:26:08;;;;;;;138.93;62.10;;;10.80;91.50;;;;;;5000871;28;20034;-74
2023/05/15 04:28:34;;;;;;;138.95;63.90;;;10.80;91.50;;;;;;5000575;28;20375;-73
2023/05/15 04:31:00;;;;;;;130.23;62.38;;;10.70;91.70;;;;;;5000597;28;20572;-74
2023/05/15 04:33:26;;;;;;;130.77;61.67;;;10.80;91.90;;;;;;4997818;28;21052;-73
2023/05/15 04:35:52;;;;;;;135.25;64.15;;;10.80;91.90;;;;;;5000395;28;20080;-73
2023/05/15 04:38:18;;;;;;;137.55;63.10;;;10.80;92.00;;;;;;4999154;28;20024;-73
2023/05/15 04:40:44;;;;;;;138.80;66.63;;;10.90;92.10;;;;;;4981623;28;20419;-73
2023/05/15 04:43:09;;;;;;;120.15;60.50;;;10.90;92.10;;;;;;4997050;28;20097;-73
2023/05/15 04:45:35;;;;;;;121.60;62.42;;;10.80;91.90;;;;;;4999580;28;20053;-74
2023/05/15 04:48:01;;;;;;;125.15;62.42;;;10.80;91.80;;;;;;5000127;28;20044;-74
2023/05/15 04:50:27;;;;;;;118.57;59.42;;;10.80;91.90;;;;;;5000912;28;20484;-74
2023/05/15 04:52:53;;;;;;;118.88;59.47;;;10.80;92.10;;;;;;4995919;28;20050;-73
2023/05/15 04:55:19;;;;;;;124.30;62.20;;;10.90;92.20;;;;;;4999529;28;20034;-73
2023/05/15 04:57:46;;;;;;;108.97;59.22;;;11.00;92.10;;;;;;4997360;28;20049;-74
2023/05/15 05:00:13;;;;;;;113.68;61.45;;;11.00;92.10;;;;;;4997342;28;20837;-73
2023/05/15 05:02:39;;;;;;;107.43;60.75;;;11.10;92.00;;;;;;4998292;28;20030;-73
2023/05/15 05:05:06;;;;;;;111.78;59.50;;;11.10;91.90;;;;;;4998912;28;20034;-73
2023/05/15 05:07:32;;;;;;;111.45;59.67;;;11.10;91.90;;;;;;4999309;28;20417;-73
2023/05/15 05:09:58;;;;;;;110.60;59.67;;;11.10;91.60;;;;;;4999128;28;20030;-74
2023/05/15 05:12:24;;;;;;;118.20;62.22;;;11.10;91.60;;;;;;4998552;28;20414;-73
2023/05/15 05:14:49;;;;;;;116.65;60.58;;;11.10;91.70;;;;;;4998719;28;20064;-74
2023/05/15 05:17:15;;;;;;;116.07;62.90;;;11.10;91.60;;;;;;4997778;28;20065;-74
2023/05/15 05:19:41;;;;;;;113.95;60.78;;;11.10;91.50;;;;;;4998062;28;20395;-74
2023/05/15 05:22:07;;;;;;;128.57;66.22;;;11.20;91.60;;;;;;4996399;28;20038;-73
2023/05/15 05:24:36;;;;;;;121.90;63.10;;;11.10;91.50;;;;;;4996451;28;20433;-73
2023/05/15 05:27:02;;;;;;;120.47;62.08;;;11.20;91.50;;;;;;4993786;28;20038;-73
2023/05/15 05:29:29;;;;;;;127.95;65.95;;;11.20;91.50;;;;;;4999906;28;20813;-74
2023/05/15 05:31:55;;;;;;;114.05;62.75;;;11.20;91.50;;;;;;4997616;28;20050;-73
2023/05/15 05:34:21;;;;;;;113.13;63.92;;;11.20;91.50;;;;;;4998023;28;20049;-73
2023/05/15 05:36:47;;;;;;;111.07;61.50;;;11.20;91.50;;;;;;4997053;28;20080;-73
2023/05/15 05:39:13;;;;;;;109.47;61.10;;;11.30;91.70;;;;;;4998336;28;20029;-73
2023/05/15 05:41:39;;;;;;;110.68;61.35;;;11.40;91.60;;;;;;4996926;28;20182;-73
2023/05/15 05:44:05;;;;;;;116.18;64.32;;;11.40;91.50;;;;;;4999760;28;20459;-73
2023/05/15 05:46:30;;;;;;;115.88;63.20;;;11.50;91.60;;;;;;4999603;28;20038;-74
2023/05/15 05:48:56;;;;;;;109.32;62.35;;;11.50;91.50;;;;;;5004137;28;20033;-75
2023/05/15 05:51:21;;;;;;;112.13;62.70;;;11.60;91.60;;;;;;5001851;28;20566;-77
2023/05/15 05:53:47;;;;;;;97.68;57.13;;;11.70;91.40;;;;;;5003727;28;20055;-76
2023/05/15 05:56:13;;;;;;;100.07;59.10;;;11.70;91.20;;;;;;4999494;28;20030;-74
2023/05/15 05:58:38;;;;;;;97.05;57.55;;;11.70;90.90;;;;;;5001981;28;20033;-80
2023/05/15 06:01:04;;;;;;;99.78;59.72;;;11.70;91.00;;;;;;5001679;28;20374;-78
2023/05/15 06:03:30;;;;;;;92.05;54.85;;;11.70;91.00;;;;;;5000001;28;20101;-75
2023/05/15 06:05:56;;;;;;;96.85;56.92;;;11.70;90.80;;;;;;5002500;28;20029;-78
2023/05/15 06:08:21;;;;;;;94.38;55.80;;;11.70;90.60;;;;;;5003669;28;20041;-82
2023/05/15 06:10:47;;;;;;;93.90;54.42;;;11.70;90.60;;;;;;5001021;28;20095;-82
2023/05/15 06:13:13;;;;;;;92.13;56.65;;;11.70;90.60;;;;;;4986959;28;20104;-81
2023/05/15 06:15:40;;;;;;;85.95;53.85;;;11.70;90.60;;;;;;5003896;28;20026;-80
2023/05/15 06:18:05;;;;;;;91.55;53.85;;;11.70;90.50;;;;;;5006990;28;20202;-81
2023/05/15 06:20:31;;;;;;;97.25;55.78;;;11.70;90.60;;;;;;5003586;28;20556;-84
2023/05/15 06:22:57;;;;;;;92.75;53.47;;;11.70;90.50;;;;;;5002280;28;20048;-81
2023/05/15 06:25:23;;;;;;;96.55;55.13;;;11.80;90.60;;;;;;5002819;28;20084;-76
2023/05/15 06:27:49;;;;;;;85.95;51.72;;;11.80;90.50;;;;;;5003401;28;20040;-78
2023/05/15 06:30:14;;;;;;;93.15;53.78;;;11.70;90.40;;;;;;4996630;28;20030;-79
2023/05/15 06:32:40;;;;;;;94.28;53.60;;;11.70;90.40;;;;;;4999093;28;20049;-77
2023/05/15 06:35:07;;;;;;;101.60;56.75;;;11.70;90.30;;;;;;5000889;28;20459;-78
2023/05/15 06:37:33;;;;;;;91.97;53.25;;;11.70;90.30;;;;;;5001076;28;20103;-80
2023/05/15 06:39:59;;;;;;;93.88;54.60;;;11.70;90.20;;;;;;5004335;28;20449;-76
2023/05/15 06:42:24;;;;;;;97.18;56.83;;;11.70;90.10;;;;;;4984346;28;20038;-75
2023/05/15 06:44:50;;;;;;;91.05;53.67;;;11.70;90.20;;;;;;5002991;28;20466;-75
2023/05/15 06:47:15;;;;;;;91.28;53.00;;;11.70;90.10;;;;;;5003436;28;20036;-76
2023/05/15 06:49:41;;;;;;;86.80;51.25;;;11.80;90.00;;;;;;5003742;28;20038;-75
2023/05/15 06:52:07;;;;;;;89.25;53.33;;;11.80;90.00;;;;;;5000192;28;20339;-75
2023/05/15 06:54:33;;;;;;;89.07;54.17;;;11.80;89.80;;;;;;5001581;28;20291;-75
2023/05/15 06:56:58;;;;;;;85.43;51.47;;;11.90;89.80;;;;;;4984001;28;20053;-73
2023/05/15 06:59:24;;;;;;;85.35;49.80;;;12.00;89.90;;;;;;5001660;28;20037;-73
2023/05/15 07:01:50;;;;;;;85.15;51.70;;;12.00;89.50;;;;;;5002503;28;20056;-75
2023/05/15 07:04:16;;;;;;;80.50;51.15;;;12.00;89.40;;;;;;5002191;28;20026;-73
2023/05/15 07:06:42;;;;;;;83.20;51.65;;;12.10;89.40;;;;;;5001252;28;20132;-73
2023/05/15 07:09:08;;;;;;;85.28;51.67;;;12.10;89.00;;;;;;4981028;28;20706;-75
2023/05/15 07:11:36;;;;;;;83.88;49.90;;;12.30;89.00;;;;;;4985635;28;20117;-74
2023/05/15 07:14:02;;;;;;;79.20;50.28;;;12.40;88.80;;;;;;4995282;28;20133;-74
2023/05/15 07:16:28;;;;;;;75.72;46.00;;;12.50;88.10;;;;;;5003372;28;20037;-74
2023/05/15 07:18:54;;;;;;;76.57;47.45;;;12.60;87.80;;;;;;5002725;28;20026;-74
2023/05/15 07:21:20;;;;;;;74.40;45.90;;;12.80;87.40;;;;;;4999764;28;20026;-75
2023/05/15 07:23:45;;;;;;;66.78;43.47;;;13.00;86.90;;;;;;4999811;28;20037;-76
2023/05/15 07:26:13;;;;;;;66.65;44.20;;;13.10;86.10;;;;;;4999073;28;20053;-76
2023/05/15 07:28:39;;;;;;;68.57;45.03;;;13.20;84.80;;;;;;4998529;28;20126;-78
2023/05/15 07:31:05;;;;;;;67.20;44.38;;;13.40;85.10;;;;;;4999043;28;20056;-78
2023/05/15 07:33:31;;;;;;;61.42;41.97;;;13.40;83.90;;;;;;5002664;28;20096;-76
2023/05/15 07:35:57;;;;;;;64.45;42.67;;;13.50;84.10;;;;;;4983630;28;20519;-76
2023/05/15 07:38:23;;;;;;;61.15;41.90;;;13.50;83.70;;;;;;5002971;28;20535;-76
2023/05/15 07:40:48;;;;;;;59.40;40.40;;;13.50;83.50;;;;;;5000887;28;20018;-75
2023/05/15 07:43:14;;;;;;;58.65;40.53;;;13.40;83.30;;;;;;5002961;28;20036;-78
2023/05/15 07:45:41;;;;;;;60.03;39.75;;;13.40;83.20;;;;;;4997344;28;20109;-76
2023/05/15 07:48:14;;;;;;;52.17;35.97;;;13.30;83.10;;;;;;4999878;28;20091;-76
2023/05/15 07:50:40;;;;;;;56.47;38.45;;;13.40;83.00;;;;;;4999339;28;20030;-77
2023/05/15 07:53:06;;;;;;;52.60;35.85;;;13.50;83.20;;;;;;5001827;28;20041;-77
2023/05/15 07:55:32;;;;;;;52.00;37.15;;;13.50;83.00;;;;;;5001416;28;20045;-77
2023/05/15 07:57:57;;;;;;;53.10;37.10;;;13.40;82.80;;;;;;5001044;28;20034;-76
2023/05/15 08:00:23;;;;;;;56.33;37.58;;;13.30;82.10;;;;;;5000022;28;20058;-75
2023/05/15 08:02:49;;;;;;;54.45;36.80;;;13.10;83.00;;;;;;5002975;28;20042;-75
2023/05/15 08:05:15;;;;;;;56.70;37.63;;;13.20;83.00;;;;;;5001776;28;20516;-76
2023/05/15 08:07:41;;;;;;;59.50;37.53;;;13.10;83.30;;;;;;5001372;28;20412;-77
2023/05/15 08:10:08;;;;;;;58.28;38.78;;;13.10;83.60;;;;;;4997425;28;20026;-76
2023/05/15 08:12:33;;;;;;;57.30;38.63;;;13.20;83.60;;;;;;5001881;28;20041;-76
2023/05/15 08:14:59;;;;;;;60.78;39.80;;;13.20;83.50;;;;;;5000278;28;20815;-75
2023/05/15 08:17:25;;;;;;;60.60;39.22;;;13.20;83.30;;;;;;5001617;28;20023;-76
2023/05/15 08:19:51;;;;;;;61.35;39.05;;;13.20;83.20;;;;;;5000503;28;20033;-75
2023/05/15 08:22:17;;;;;;;65.60;42.15;;;13.30;83.30;;;;;;4984150;28;20046;-76
2023/05/15 08:24:43;;;;;;;65.80;41.85;;;13.50;83.70;;;;;;5001825;28;20029;-78
2023/05/15 08:27:09;;;;;;;62.35;39.95;;;13.60;83.20;;;;;;4999363;28;20073;-76
2023/05/15 08:29:36;;;;;;;60.60;40.00;;;14.00;82.60;;;;;;4983568;28;20109;-78
2023/05/15 08:32:03;;;;;;;64.80;41.00;;;14.20;81.30;;;;;;4997224;28;20133;-77
2023/05/15 08:34:29;;;;;;;58.53;38.45;;;14.40;79.70;;;;;;5001985;28;20051;-79
2023/05/15 08:36:55;;;;;;;60.75;38.92;;;14.50;79.80;;;;;;5002438;28;20099;-76
2023/05/15 08:39:21;;;;;;;58.05;38.22;;;14.60;79.80;;;;;;5005584;28;20034;-77
2023/05/15 08:41:59;;;;;;;59.17;36.90;;;14.80;79.80;;;;;;4995975;28;20536;-78
2023/05/15 08:44:25;;;;;;;58.55;36.42;;;15.00;78.60;;;;;;5002986;28;20112;-80
2023/05/15 08:46:52;;;;;;;63.53;37.38;;;15.00;78.80;;;;;;4999718;28;20125;-77
2023/05/15 08:49:51;;;;;;;57.20;36.08;;;15.20;77.90;;;;;;5001362;28;20567;-78
2023/05/15 08:52:17;;;;;;;60.10;36.83;;;15.10;78.00;;;;;;4994931;28;20117;-77
2023/05/15 08:54:43;;;;;;;60.20;38.05;;;15.10;78.80;;;;;;5000598;28;20136;-75
2023/05/15 08:57:09;;;;;;;62.05;39.05;;;15.10;78.90;;;;;;4999940;28;20026;-76
2023/05/15 08:59:37;;;;;;;59.13;37.03;;;15.10;78.70;;;;;;4999735;28;20030;-75
2023/05/15 09:02:02;;;;;;;63.60;36.88;;;15.10;78.60;;;;;;5002617;28;20104;-74
2023/05/15 09:04:28;;;;;;;62.90;38.72;;;15.00;78.60;;;;;;5000883;28;20026;-74
2023/05/15 09:06:54;;;;;;;65.13;39.15;;;14.80;79.50;;;;;;4982835;28;20034;-73
2023/05/15 09:09:22;;;;;;;63.75;39.33;;;14.70;79.40;;;;;;4999894;28;20025;-74
2023/05/15 09:11:49;;;;;;;68.00;41.63;;;14.60;80.10;;;;;;4996233;28;20053;-73
2023/05/15 09:14:15;;;;;;;70.97;42.30;;;14.60;80.60;;;;;;4998125;28;20117;-75
2023/05/15 09:16:41;;;;;;;72.35;42.35;;;14.50;81.00;;;;;;4999525;28;20034;-75
2023/05/15 09:19:07;;;;;;;68.45;40.88;;;14.60;81.10;;;;;;5000085;28;20046;-74
2023/05/15 09:21:33;;;;;;;75.10;43.35;;;14.70;81.20;;;;;;5004612;28;20038;-74
2023/05/15 09:24:20;;;;;;;75.43;41.97;;;14.70;81.00;;;;;;5005146;28;20030;-74
2023/05/15 09:26:59;;;;;;;68.00;40.47;;;14.80;80.60;;;;;;4986452;28;20449;-74
2023/05/15 09:29:27;;;;;;;72.50;41.00;;;14.80;80.60;;;;;;5004880;28;20088;-75
2023/05/15 09:31:53;;;;;;;79.32;44.17;;;14.80;80.10;;;;;;5003698;28;20478;-75
2023/05/15 09:34:31;;;;;;;72.40;41.78;;;14.70;80.70;;;;;;5005199;28;20029;-75
2023/05/15 09:36:57;;;;;;;79.07;43.67;;;14.60;80.90;;;;;;5003123;28;20741;-75
2023/05/15 09:39:23;;;;;;;79.35;44.58;;;14.50;81.30;;;;;;5006449;28;20121;-76
2023/05/15 09:41:48;;;;;;;74.47;42.97;;;14.40;82.00;;;;;;5002744;28;20060;-74
2023/05/15 09:44:25;;;;;;;85.95;45.50;;;14.30;82.20;;;;;;5004010;28;20026;-75
2023/05/15 09:46:51;;;;;;;81.45;44.30;;;14.30;82.30;;;;;;5002532;28;20171;-76
2023/05/15 09:49:18;;;;;;;86.10;47.42;;;14.20;82.80;;;;;;5004300;28;20034;-75
2023/05/15 09:51:45;;;;;;;82.35;46.70;;;14.10;83.70;;;;;;5003459;28;20100;-75
2023/05/15 09:54:16;;;;;;;86.10;44.70;;;14.10;84.20;;;;;;5004805;28;20030;-75
2023/05/15 09:56:46;;;;;;;81.57;45.53;;;14.00;84.90;;;;;;5001870;28;20029;-75
2023/05/15 09:59:16;;;;;;;87.75;46.00;;;13.90;85.40;;;;;;5000105;28;20455;-75
2023/05/15 10:01:47;;;;;;;85.28;44.20;;;13.90;85.60;;;;;;5000752;28;20485;-74
2023/05/15 10:04:13;;;;;;;85.75;44.88;;;13.80;85.80;;;;;;5004934;28;20572;-74
2023/05/15 10:06:41;;;;;;;81.15;44.55;;;13.80;86.20;;;;;;4999380;28;20662;-73
2023/05/15 10:09:08;;;;;;;80.72;43.00;;;13.80;86.80;;;;;;4997576;28;20072;-74
2023/05/15 10:11:35;;;;;;;83.10;43.10;;;13.80;86.80;;;;;;5000478;28;20577;-74
2023/05/15 10:14:05;;;;;;;87.57;47.40;;;13.80;87.00;;;;;;5003952;28;20034;-74
2023/05/15 10:16:36;;;;;;;77.78;41.50;;;13.90;87.10;;;;;;5007288;28;20129;-73
2023/05/15 10:19:07;;;;;;;77.15;41.67;;;13.90;87.30;;;;;;5000076;28;20034;-74
2023/05/15 10:21:35;;;;;;;76.05;41.20;;;13.90;87.20;;;;;;5001175;28;20037;-74
2023/05/15 10:24:01;;;;;;;65.13;36.30;;;13.90;87.00;;;;;;5004134;28;20053;-75
2023/05/15 10:26:38;;;;;;;69.25;37.92;;;13.80;86.70;;;;;;5003296;28;20045;-74
2023/05/15 10:29:12;;;;;;;75.15;38.83;;;13.90;87.10;;;;;;5002691;28;20772;-75
2023/05/15 10:31:41;;;;;;;72.00;38.95;;;14.00;87.30;;;;;;4982803;28;20403;-74
2023/05/15 10:34:08;;;;;;;67.82;38.58;;;14.00;87.10;;;;;;4999438;28;20036;-74
2023/05/15 10:36:35;;;;;;;69.63;38.00;;;14.00;87.20;;;;;;4996201;28;20348;-73
2023/05/15 10:39:05;;;;;;;73.10;38.67;;;14.10;86.90;;;;;;4999359;28;20113;-74
2023/05/15 10:41:36;;;;;;;78.00;40.05;;;14.00;87.20;;;;;;4997283;28;20045;-75
2023/05/15 10:44:01;;;;;;;72.15;37.58;;;14.00;87.40;;;;;;4996081;28;21279;-75
2023/05/15 10:46:30;;;;;;;70.82;37.70;;;14.10;87.70;;;;;;4977876;28;20045;-75
2023/05/15 10:48:57;;;;;;;74.70;40.20;;;14.10;87.60;;;;;;4997785;28;20030;-74
2023/05/15 10:51:26;;;;;;;67.97;37.97;;;14.10;87.60;;;;;;4996506;28;20069;-75
2023/05/15 10:53:52;;;;;;;60.38;32.20;;;14.10;87.80;;;;;;4997149;28;20033;-73
2023/05/15 10:56:18;;;;;;;63.50;34.33;;;14.10;87.60;;;;;;4995995;28;20041;-73
2023/05/15 10:58:48;;;;;;;61.78;34.45;;;14.10;87.40;;;;;;4997971;28;20103;-75
2023/05/15 11:01:33;;;;;;;57.67;32.75;;;14.00;87.70;;;;;;4997833;28;20042;-76
2023/05/15 11:04:11;;;;;;;59.10;29.98;;;13.90;87.80;;;;;;4996673;28;20053;-75
2023/05/15 11:06:38;;;;;;;55.38;30.25;;;13.70;87.80;;;;;;4994879;28;20613;-74
2023/05/15 11:09:23;;;;;;;55.45;29.98;;;13.80;88.60;;;;;;4993176;28;20075;-74
2023/05/15 11:11:51;;;;;;;55.78;28.42;;;13.90;88.80;;;;;;4995113;28;20060;-74
2023/05/15 11:14:21;;;;;;;50.50;26.73;;;14.00;88.60;;;;;;4994321;28;20037;-73
2023/05/15 11:16:53;;;;;;;54.35;29.48;;;14.00;88.60;;;;;;4997541;28;20125;-74
2023/05/15 11:19:35;;;;;;;18.85;10.27;;;13.90;88.60;;;;;;5000872;28;20069;-74
2023/05/15 11:22:04;;;;;;;15.80;7.20;;;13.30;87.70;;;;;;4997642;28;20061;-74
2023/05/15 11:24:31;;;;;;;10.90;5.68;;;13.00;88.20;;;;;;5002522;28;20057;-73
2023/05/15 11:27:03;;;;;;;9.75;4.47;;;12.80;88.50;;;;;;5001977;28;20045;-74
2023/05/15 11:29:30;;;;;;;11.95;5.72;;;12.70;88.80;;;;;;5001771;28;20021;-74
2023/05/15 11:31:56;;;;;;;9.63;4.50;;;12.70;89.20;;;;;;5000707;28;20189;-75
2023/05/15 11:34:29;;;;;;;10.27;4.45;;;12.60;89.10;;;;;;5003640;28;20612;-73
2023/05/15 11:36:57;;;;;;;9.30;3.67;;;12.50;89.00;;;;;;5002164;28;20490;-73
2023/05/15 11:39:24;;;;;;;9.98;3.90;;;12.50;89.30;;;;;;5000255;28;20033;-76
2023/05/15 11:41:50;;;;;;;10.65;4.18;;;12.50;89.20;;;;;;4998276;28;20053;-74
2023/05/15 11:44:23;;;;;;;11.02;5.28;;;12.30;89.40;;;;;;4999286;28;20033;-74
2023/05/15 11:46:52;;;;;;;10.52;5.13;;;12.30;89.50;;;;;;4998535;28;20330;-74
2023/05/15 11:49:18;;;;;;;9.77;4.15;;;12.40;89.70;;;;;;4999859;28;20479;-74
2023/05/15 11:51:46;;;;;;;13.07;4.95;;;12.30;88.60;;;;;;5000458;28;20152;-75
2023/05/15 11:54:12;;;;;;;10.88;4.38;;;12.30;89.00;;;;;;5001336;28;20485;-76
2023/05/15 11:56:45;;;;;;;9.70;4.68;;;12.30;89.10;;;;;;5001360;28;20030;-74
2023/05/15 11:59:14;;;;;;;12.27;4.65;;;12.30;89.00;;;;;;4983993;28;20129;-76
2023/05/15 12:01:41;;;;;;;8.80;4.50;;;12.30;88.80;;;;;;5000125;28;20052;-75
2023/05/15 12:04:16;;;;;;;11.32;4.00;;;12.20;88.70;;;;;;5002289;28;20014;-75
2023/05/15 12:06:43;;;;;;;12.63;4.35;;;12.10;88.50;;;;;;4983574;28;20490;-75
2023/05/15 12:09:27;;;;;;;11.57;4.45;;;12.20;88.40;;;;;;5001374;28;20128;-75
2023/05/15 12:11:54;;;;;;;9.75;4.82;;;12.10;88.40;;;;;;4999719;28;20061;-75
2023/05/15 12:14:30;;;;;;;10.93;4.50;;;12.20;88.90;;;;;;5000021;28;20065;-75
2023/05/15 12:17:03;;;;;;;12.07;4.28;;;12.20;89.20;;;;;;5000575;28;20518;-75
2023/05/15 12:19:33;;;;;;;11.82;5.00;;;12.20;88.90;;;;;;4999877;28;20454;-76
2023/05/15 12:21:58;;;;;;;10.88;4.40;;;12.30;89.10;;;;;;4999457;28;20066;-76
2023/05/15 12:24:25;;;;;;;13.93;5.65;;;12.30;88.80;;;;;;5000602;28;20558;-75
2023/05/15 12:26:51;;;;;;;11.80;5.05;;;12.40;88.90;;;;;;5001150;28;20458;-73
2023/05/15 12:29:18;;;;;;;12.00;4.60;;;12.50;88.40;;;;;;5001726;28;20030;-73
2023/05/15 12:31:43;;;;;;;11.73;4.95;;;12.30;88.70;;;;;;4981531;28;20042;-74